sensor_id;sensor_type;location;lat;lon;timestamp;P1;durP1;ratioP1;P2;durP2;ratioP2
19043;SDS011;9654;52.302;8.120;2023-02-11T00:00:55;110.97;;;48.47;;
19043;SDS011;9654;52.302;8.120;2023-02-11T00:03:22;96.07;;;39.40;;
19043;SDS011;9654;52.302;8.120;2023-02-11T00:05:55;97.10;;;41.63;;
19043;SDS011;9654;52.302;8.120;2023-02-11T00:08:23;106.37;;;47.53;;
19043;SDS011;9654;52.302;8.120;2023-02-11T00:10:50;104.33;;;42.90;;
19043;SDS011;9654;52.302;8.120;2023-02-11T00:13:19;99.73;;;41.03;;
19043;SDS011;9654;52.302;8.120;2023-02-11T00:15:45;102.10;;;43.20;;
19043;SDS011;9654;52.302;8.120;2023-02-11T00:18:12;109.47;;;46.27;;
19043;SDS011;9654;52.302;8.120;2023-02-11T00:20:39;101.80;;;42.47;;
19043;SDS011;9654;52.302;8.120;2023-02-11T00:23:06;105.37;;;45.23;;
19043;SDS011;9654;52.302;8.120;2023-02-11T00:25:37;95.90;;;42.20;;
19043;SDS011;9654;52.302;8.120;2023-02-11T00:28:04;87.30;;;38.83;;
19043;SDS011;9654;52.302;8.120;2023-02-11T00:30:32;100.83;;;39.33;;
19043;SDS011;9654;52.302;8.120;2023-02-11T00:32:59;88.27;;;38.73;;
19043;SDS011;9654;52.302;8.120;2023-02-11T00:35:26;97.07;;;40.83;;
19043;SDS011;9654;52.302;8.120;2023-02-11T00:37:53;89.07;;;38.37;;
19043;SDS011;9654;52.302;8.120;2023-02-11T00:40:20;102.00;;;41.37;;
19043;SDS011;9654;52.302;8.120;2023-02-11T00:42:47;86.93;;;35.73;;
19043;SDS011;9654;52.302;8.120;2023-02-11T00:45:14;88.73;;;36.37;;
19043;SDS011;9654;52.302;8.120;2023-02-11T00:47:42;86.77;;;37.93;;
19043;SDS011;9654;52.302;8.120;2023-02-11T00:50:09;89.33;;;36.27;;
19043;SDS011;9654;52.302;8.120;2023-02-11T00:52:36;89.47;;;36.77;;
19043;SDS011;9654;52.302;8.120;2023-02-11T00:55:03;86.23;;;37.33;;
19043;SDS011;9654;52.302;8.120;2023-02-11T00:57:30;78.97;;;34.43;;
19043;SDS011;9654;52.302;8.120;2023-02-11T00:59:57;88.43;;;35.47;;
19043;SDS011;9654;52.302;8.120;2023-02-11T01:02:23;90.40;;;37.83;;
19043;SDS011;9654;52.302;8.120;2023-02-11T01:04:51;77.87;;;36.93;;
19043;SDS011;9654;52.302;8.120;2023-02-11T01:07:18;82.30;;;36.57;;
19043;SDS011;9654;52.302;8.120;2023-02-11T01:09:45;81.40;;;35.47;;
19043;SDS011;9654;52.302;8.120;2023-02-11T01:12:11;92.93;;;36.93;;
19043;SDS011;9654;52.302;8.120;2023-02-11T01:14:38;81.10;;;35.37;;
19043;SDS011;9654;52.302;8.120;2023-02-11T01:17:05;85.43;;;35.67;;
19043;SDS011;9654;52.302;8.120;2023-02-11T01:19:32;90.33;;;38.33;;
19043;SDS011;9654;52.302;8.120;2023-02-11T01:22:00;87.20;;;36.33;;
19043;SDS011;9654;52.302;8.120;2023-02-11T01:24:26;80.83;;;36.03;;
19043;SDS011;9654;52.302;8.120;2023-02-11T01:26:53;88.03;;;37.40;;
19043;SDS011;9654;52.302;8.120;2023-02-11T01:29:20;81.53;;;36.20;;
19043;SDS011;9654;52.302;8.120;2023-02-11T01:31:47;92.40;;;37.73;;
19043;SDS011;9654;52.302;8.120;2023-02-11T01:34:14;81.83;;;35.53;;
19043;SDS011;9654;52.302;8.120;2023-02-11T01:36:41;85.70;;;35.67;;
19043;SDS011;9654;52.302;8.120;2023-02-11T01:39:10;84.37;;;35.70;;
19043;SDS011;9654;52.302;8.120;2023-02-11T01:41:37;90.43;;;36.57;;
19043;SDS011;9654;52.302;8.120;2023-02-11T01:44:26;79.33;;;35.67;;
19043;SDS011;9654;52.302;8.120;2023-02-11T01:46:56;91.33;;;36.90;;
19043;SDS011;9654;52.302;8.120;2023-02-11T01:49:24;88.60;;;36.87;;
19043;SDS011;9654;52.302;8.120;2023-02-11T01:51:55;88.80;;;37.87;;
19043;SDS011;9654;52.302;8.120;2023-02-11T01:54:28;93.93;;;37.33;;
19043;SDS011;9654;52.302;8.120;2023-02-11T01:57:16;81.87;;;37.37;;
19043;SDS011;9654;52.302;8.120;2023-02-11T01:59:51;87.40;;;35.93;;
19043;SDS011;9654;52.302;8.120;2023-02-11T02:02:26;88.97;;;37.80;;
19043;SDS011;9654;52.302;8.120;2023-02-11T02:04:59;101.37;;;38.53;;
19043;SDS011;9654;52.302;8.120;2023-02-11T02:07:32;90.03;;;39.57;;
19043;SDS011;9654;52.302;8.120;2023-02-11T02:10:07;87.20;;;34.43;;
19043;SDS011;9654;52.302;8.120;2023-02-11T02:12:38;83.80;;;37.00;;
19043;SDS011;9654;52.302;8.120;2023-02-11T02:15:10;92.13;;;38.83;;
19043;SDS011;9654;52.302;8.120;2023-02-11T02:17:45;93.47;;;37.40;;
19043;SDS011;9654;52.302;8.120;2023-02-11T02:20:24;89.27;;;37.07;;
19043;SDS011;9654;52.302;8.120;2023-02-11T02:23:14;94.97;;;39.03;;
19043;SDS011;9654;52.302;8.120;2023-02-11T02:26:13;84.77;;;36.23;;
19043;SDS011;9654;52.302;8.120;2023-02-11T02:29:13;91.20;;;40.03;;
19043;SDS011;9654;52.302;8.120;2023-02-11T02:32:15;83.27;;;34.57;;
19043;SDS011;9654;52.302;8.120;2023-02-11T02:34:52;93.83;;;35.43;;
19043;SDS011;9654;52.302;8.120;2023-02-11T02:37:27;82.67;;;37.13;;
19043;SDS011;9654;52.302;8.120;2023-02-11T02:40:00;82.87;;;34.17;;
19043;SDS011;9654;52.302;8.120;2023-02-11T02:42:31;93.33;;;37.47;;
19043;SDS011;9654;52.302;8.120;2023-02-11T02:44:58;75.80;;;34.00;;
19043;SDS011;9654;52.302;8.120;2023-02-11T02:47:27;87.03;;;35.80;;
19043;SDS011;9654;52.302;8.120;2023-02-11T02:49:54;77.67;;;35.03;;
19043;SDS011;9654;52.302;8.120;2023-02-11T02:52:27;75.93;;;32.77;;
19043;SDS011;9654;52.302;8.120;2023-02-11T02:55:09;76.93;;;34.30;;
19043;SDS011;9654;52.302;8.120;2023-02-11T02:57:55;78.83;;;36.00;;
19043;SDS011;9654;52.302;8.120;2023-02-11T03:00:34;74.37;;;33.53;;
19043;SDS011;9654;52.302;8.120;2023-02-11T03:03:16;76.53;;;32.17;;
19043;SDS011;9654;52.302;8.120;2023-02-11T03:05:53;69.70;;;33.10;;
19043;SDS011;9654;52.302;8.120;2023-02-11T03:08:27;77.87;;;34.30;;
19043;SDS011;9654;52.302;8.120;2023-02-11T03:10:58;69.07;;;31.70;;
19043;SDS011;9654;52.302;8.120;2023-02-11T03:13:29;70.07;;;31.73;;
19043;SDS011;9654;52.302;8.120;2023-02-11T03:15:59;74.97;;;32.30;;
19043;SDS011;9654;52.302;8.120;2023-02-11T03:18:37;70.47;;;33.03;;
19043;SDS011;9654;52.302;8.120;2023-02-11T03:21:07;73.13;;;32.10;;
19043;SDS011;9654;52.302;8.120;2023-02-11T03:23:36;73.97;;;30.60;;
19043;SDS011;9654;52.302;8.120;2023-02-11T03:26:08;70.77;;;31.07;;
19043;SDS011;9654;52.302;8.120;2023-02-11T03:28:41;67.70;;;30.77;;
19043;SDS011;9654;52.302;8.120;2023-02-11T03:31:16;69.60;;;30.00;;
19043;SDS011;9654;52.302;8.120;2023-02-11T03:33:49;68.93;;;30.37;;
19043;SDS011;9654;52.302;8.120;2023-02-11T03:36:21;60.37;;;27.97;;
19043;SDS011;9654;52.302;8.120;2023-02-11T03:38:53;64.30;;;27.70;;
19043;SDS011;9654;52.302;8.120;2023-02-11T03:41:22;64.60;;;27.67;;
19043;SDS011;9654;52.302;8.120;2023-02-11T03:43:51;69.73;;;30.43;;
19043;SDS011;9654;52.302;8.120;2023-02-11T03:46:21;69.17;;;29.03;;
19043;SDS011;9654;52.302;8.120;2023-02-11T03:48:54;64.10;;;28.83;;
19043;SDS011;9654;52.302;8.120;2023-02-11T03:51:26;68.30;;;29.20;;
19043;SDS011;9654;52.302;8.120;2023-02-11T03:53:54;67.67;;;28.23;;
19043;SDS011;9654;52.302;8.120;2023-02-11T03:56:25;65.77;;;28.90;;
19043;SDS011;9654;52.302;8.120;2023-02-11T03:58:55;65.60;;;29.80;;
19043;SDS011;9654;52.302;8.120;2023-02-11T04:01:22;67.93;;;28.67;;
19043;SDS011;9654;52.302;8.120;2023-02-11T04:03:49;62.57;;;28.43;;
19043;SDS011;9654;52.302;8.120;2023-02-11T04:06:17;59.67;;;27.27;;
19043;SDS011;9654;52.302;8.120;2023-02-11T04:08:43;64.40;;;29.60;;
19043;SDS011;9654;52.302;8.120;2023-02-11T04:11:10;58.83;;;29.13;;
19043;SDS011;9654;52.302;8.120;2023-02-11T04:13:37;65.13;;;27.23;;
19043;SDS011;9654;52.302;8.120;2023-02-11T04:16:04;64.70;;;27.10;;
19043;SDS011;9654;52.302;8.120;2023-02-11T04:18:31;61.40;;;27.53;;
19043;SDS011;9654;52.302;8.120;2023-02-11T04:20:57;64.27;;;27.33;;
19043;SDS011;9654;52.302;8.120;2023-02-11T04:23:26;69.17;;;28.90;;
19043;SDS011;9654;52.302;8.120;2023-02-11T04:25:53;62.97;;;26.30;;
19043;SDS011;9654;52.302;8.120;2023-02-11T04:28:19;61.23;;;26.83;;
19043;SDS011;9654;52.302;8.120;2023-02-11T04:30:47;53.70;;;25.60;;
19043;SDS011;9654;52.302;8.120;2023-02-11T04:33:15;60.03;;;24.40;;
19043;SDS011;9654;52.302;8.120;2023-02-11T04:35:41;56.13;;;24.77;;
19043;SDS011;9654;52.302;8.120;2023-02-11T04:38:08;54.53;;;24.87;;
19043;SDS011;9654;52.302;8.120;2023-02-11T04:40:36;58.13;;;25.97;;
19043;SDS011;9654;52.302;8.120;2023-02-11T04:43:03;53.53;;;24.13;;
19043;SDS011;9654;52.302;8.120;2023-02-11T04:45:30;57.60;;;24.77;;
19043;SDS011;9654;52.302;8.120;2023-02-11T04:47:57;55.47;;;24.70;;
19043;SDS011;9654;52.302;8.120;2023-02-11T04:50:23;57.37;;;24.97;;
19043;SDS011;9654;52.302;8.120;2023-02-11T04:52:50;54.43;;;25.60;;
19043;SDS011;9654;52.302;8.120;2023-02-11T04:55:17;47.70;;;22.90;;
19043;SDS011;9654;52.302;8.120;2023-02-11T04:57:45;50.20;;;24.07;;
19043;SDS011;9654;52.302;8.120;2023-02-11T05:00:13;53.33;;;24.83;;
19043;SDS011;9654;52.302;8.120;2023-02-11T05:02:40;51.83;;;24.70;;
19043;SDS011;9654;52.302;8.120;2023-02-11T05:05:07;47.20;;;23.23;;
19043;SDS011;9654;52.302;8.120;2023-02-11T05:07:34;49.63;;;24.50;;
19043;SDS011;9654;52.302;8.120;2023-02-11T05:10:00;55.60;;;24.97;;
19043;SDS011;9654;52.302;8.120;2023-02-11T05:12:27;48.47;;;23.73;;
19043;SDS011;9654;52.302;8.120;2023-02-11T05:14:55;52.10;;;24.60;;
19043;SDS011;9654;52.302;8.120;2023-02-11T05:17:22;51.23;;;24.40;;
19043;SDS011;9654;52.302;8.120;2023-02-11T05:19:48;58.80;;;26.73;;
19043;SDS011;9654;52.302;8.120;2023-02-11T05:22:15;51.47;;;24.50;;
19043;SDS011;9654;52.302;8.120;2023-02-11T05:24:42;56.43;;;22.60;;
19043;SDS011;9654;52.302;8.120;2023-02-11T05:27:09;58.83;;;25.23;;
19043;SDS011;9654;52.302;8.120;2023-02-11T05:29:35;52.43;;;24.83;;
19043;SDS011;9654;52.302;8.120;2023-02-11T05:32:03;59.90;;;25.40;;
19043;SDS011;9654;52.302;8.120;2023-02-11T05:34:31;62.07;;;26.30;;
19043;SDS011;9654;52.302;8.120;2023-02-11T05:36:58;55.27;;;24.80;;
19043;SDS011;9654;52.302;8.120;2023-02-11T05:39:24;54.33;;;24.17;;
19043;SDS011;9654;52.302;8.120;2023-02-11T05:41:51;62.87;;;24.93;;
19043;SDS011;9654;52.302;8.120;2023-02-11T05:44:18;60.53;;;27.27;;
19043;SDS011;9654;52.302;8.120;2023-02-11T05:46:44;60.57;;;25.53;;
19043;SDS011;9654;52.302;8.120;2023-02-11T05:49:14;62.97;;;25.30;;
19043;SDS011;9654;52.302;8.120;2023-02-11T05:51:41;61.93;;;27.20;;
19043;SDS011;9654;52.302;8.120;2023-02-11T05:54:08;52.60;;;25.67;;
19043;SDS011;9654;52.302;8.120;2023-02-11T05:56:35;60.90;;;25.97;;
19043;SDS011;9654;52.302;8.120;2023-02-11T05:59:02;56.90;;;26.13;;
19043;SDS011;9654;52.302;8.120;2023-02-11T06:01:29;63.30;;;27.37;;
19043;SDS011;9654;52.302;8.120;2023-02-11T06:03:55;61.63;;;25.63;;
19043;SDS011;9654;52.302;8.120;2023-02-11T06:06:24;53.20;;;24.63;;
19043;SDS011;9654;52.302;8.120;2023-02-11T06:08:51;58.90;;;26.30;;
19043;SDS011;9654;52.302;8.120;2023-02-11T06:11:17;57.67;;;25.00;;
19043;SDS011;9654;52.302;8.120;2023-02-11T06:13:44;58.37;;;25.23;;
19043;SDS011;9654;52.302;8.120;2023-02-11T06:16:11;62.63;;;26.33;;
19043;SDS011;9654;52.302;8.120;2023-02-11T06:18:38;63.37;;;24.70;;
19043;SDS011;9654;52.302;8.120;2023-02-11T06:21:05;60.33;;;27.03;;
19043;SDS011;9654;52.302;8.120;2023-02-11T06:23:34;57.37;;;26.10;;
19043;SDS011;9654;52.302;8.120;2023-02-11T06:26:01;60.73;;;25.43;;
19043;SDS011;9654;52.302;8.120;2023-02-11T06:28:29;54.80;;;26.47;;
19043;SDS011;9654;52.302;8.120;2023-02-11T06:30:56;64.30;;;27.33;;
19043;SDS011;9654;52.302;8.120;2023-02-11T06:33:23;61.83;;;26.63;;
19043;SDS011;9654;52.302;8.120;2023-02-11T06:35:50;57.50;;;25.00;;
19043;SDS011;9654;52.302;8.120;2023-02-11T06:38:16;58.50;;;25.07;;
19043;SDS011;9654;52.302;8.120;2023-02-11T06:40:47;61.43;;;25.67;;
19043;SDS011;9654;52.302;8.120;2023-02-11T06:43:15;59.53;;;26.77;;
19043;SDS011;9654;52.302;8.120;2023-02-11T06:45:42;58.87;;;24.53;;
19043;SDS011;9654;52.302;8.120;2023-02-11T06:48:09;63.20;;;25.43;;
19043;SDS011;9654;52.302;8.120;2023-02-11T06:50:36;66.87;;;26.70;;
19043;SDS011;9654;52.302;8.120;2023-02-11T06:53:03;67.07;;;27.17;;
19043;SDS011;9654;52.302;8.120;2023-02-11T06:55:30;60.27;;;26.43;;
19043;SDS011;9654;52.302;8.120;2023-02-11T06:57:58;65.43;;;26.23;;
19043;SDS011;9654;52.302;8.120;2023-02-11T07:00:26;57.13;;;26.13;;
19043;SDS011;9654;52.302;8.120;2023-02-11T07:02:54;69.83;;;25.93;;
19043;SDS011;9654;52.302;8.120;2023-02-11T07:05:21;64.53;;;26.80;;
19043;SDS011;9654;52.302;8.120;2023-02-11T07:07:47;63.60;;;27.17;;
19043;SDS011;9654;52.302;8.120;2023-02-11T07:10:14;55.20;;;24.03;;
19043;SDS011;9654;52.302;8.120;2023-02-11T07:12:41;59.33;;;26.97;;
19043;SDS011;9654;52.302;8.120;2023-02-11T07:15:09;64.07;;;27.23;;
19043;SDS011;9654;52.302;8.120;2023-02-11T07:17:36;72.50;;;30.07;;
19043;SDS011;9654;52.302;8.120;2023-02-11T07:20:03;75.80;;;30.47;;
19043;SDS011;9654;52.302;8.120;2023-02-11T07:22:30;67.33;;;30.47;;
19043;SDS011;9654;52.302;8.120;2023-02-11T07:24:58;84.53;;;39.30;;
19043;SDS011;9654;52.302;8.120;2023-02-11T07:27:25;127.10;;;53.33;;
19043;SDS011;9654;52.302;8.120;2023-02-11T07:29:52;71.37;;;30.53;;
19043;SDS011;9654;52.302;8.120;2023-02-11T07:32:20;75.03;;;33.47;;
19043;SDS011;9654;52.302;8.120;2023-02-11T07:34:47;81.93;;;36.33;;
19043;SDS011;9654;52.302;8.120;2023-02-11T07:37:15;64.77;;;27.13;;
19043;SDS011;9654;52.302;8.120;2023-02-11T07:39:42;98.70;;;41.67;;
19043;SDS011;9654;52.302;8.120;2023-02-11T07:42:09;86.50;;;33.37;;
19043;SDS011;9654;52.302;8.120;2023-02-11T07:44:36;85.17;;;38.80;;
19043;SDS011;9654;52.302;8.120;2023-02-11T07:47:02;71.27;;;30.90;;
19043;SDS011;9654;52.302;8.120;2023-02-11T07:49:31;70.77;;;29.50;;
19043;SDS011;9654;52.302;8.120;2023-02-11T07:51:58;72.57;;;27.63;;
19043;SDS011;9654;52.302;8.120;2023-02-11T07:54:25;61.90;;;28.17;;
19043;SDS011;9654;52.302;8.120;2023-02-11T07:56:52;60.73;;;29.07;;
19043;SDS011;9654;52.302;8.120;2023-02-11T07:59:19;73.17;;;29.90;;
19043;SDS011;9654;52.302;8.120;2023-02-11T08:01:46;76.07;;;30.50;;
19043;SDS011;9654;52.302;8.120;2023-02-11T08:04:15;64.77;;;29.37;;
19043;SDS011;9654;52.302;8.120;2023-02-11T08:06:47;73.90;;;29.23;;
19043;SDS011;9654;52.302;8.120;2023-02-11T08:09:16;75.50;;;28.73;;
19043;SDS011;9654;52.302;8.120;2023-02-11T08:11:43;74.40;;;29.90;;
19043;SDS011;9654;52.302;8.120;2023-02-11T08:14:11;69.33;;;30.67;;
19043;SDS011;9654;52.302;8.120;2023-02-11T08:16:38;77.87;;;30.50;;
19043;SDS011;9654;52.302;8.120;2023-02-11T08:19:06;79.10;;;32.47;;
19043;SDS011;9654;52.302;8.120;2023-02-11T08:21:36;76.00;;;31.80;;
19043;SDS011;9654;52.302;8.120;2023-02-11T08:24:07;79.10;;;31.70;;
19043;SDS011;9654;52.302;8.120;2023-02-11T08:26:43;80.23;;;33.33;;
19043;SDS011;9654;52.302;8.120;2023-02-11T08:29:49;78.83;;;32.50;;
19043;SDS011;9654;52.302;8.120;2023-02-11T08:33:10;76.13;;;31.07;;
19043;SDS011;9654;52.302;8.120;2023-02-11T08:35:59;79.97;;;32.07;;
19043;SDS011;9654;52.302;8.120;2023-02-11T08:51:53;76.77;;;30.77;;
19043;SDS011;9654;52.302;8.120;2023-02-11T12:28:22;51.07;;;24.93;;
19043;SDS011;9654;52.302;8.120;2023-02-11T12:31:46;58.90;;;26.77;;
19043;SDS011;9654;52.302;8.120;2023-02-11T12:42:08;53.50;;;24.80;;
19043;SDS011;9654;52.302;8.120;2023-02-11T12:57:35;50.57;;;21.67;;
19043;SDS011;9654;52.302;8.120;2023-02-11T13:00:06;52.40;;;22.47;;
19043;SDS011;9654;52.302;8.120;2023-02-11T13:02:40;47.77;;;24.10;;
19043;SDS011;9654;52.302;8.120;2023-02-11T13:05:19;45.50;;;22.97;;
19043;SDS011;9654;52.302;8.120;2023-02-11T13:07:50;44.47;;;21.63;;
19043;SDS011;9654;52.302;8.120;2023-02-11T13:10:23;48.30;;;21.50;;
19043;SDS011;9654;52.302;8.120;2023-02-11T13:12:53;47.63;;;21.47;;
19043;SDS011;9654;52.302;8.120;2023-02-11T13:15:40;55.03;;;23.10;;
19043;SDS011;9654;52.302;8.120;2023-02-11T13:18:11;47.50;;;21.03;;
19043;SDS011;9654;52.302;8.120;2023-02-11T13:20:50;50.50;;;22.73;;
19043;SDS011;9654;52.302;8.120;2023-02-11T13:23:22;55.93;;;24.23;;
19043;SDS011;9654;52.302;8.120;2023-02-11T13:25:52;51.43;;;23.13;;
19043;SDS011;9654;52.302;8.120;2023-02-11T13:28:30;48.87;;;22.20;;
19043;SDS011;9654;52.302;8.120;2023-02-11T13:31:05;54.00;;;23.47;;
19043;SDS011;9654;52.302;8.120;2023-02-11T13:33:34;47.23;;;22.47;;
19043;SDS011;9654;52.302;8.120;2023-02-11T13:36:11;54.97;;;23.27;;
19043;SDS011;9654;52.302;8.120;2023-02-11T13:38:40;56.10;;;25.40;;
19043;SDS011;9654;52.302;8.120;2023-02-11T13:41:22;57.60;;;23.37;;
19043;SDS011;9654;52.302;8.120;2023-02-11T13:43:58;52.63;;;22.53;;
19043;SDS011;9654;52.302;8.120;2023-02-11T13:46:28;62.50;;;27.63;;
19043;SDS011;9654;52.302;8.120;2023-02-11T13:49:16;57.97;;;25.80;;
19043;SDS011;9654;52.302;8.120;2023-02-11T13:51:45;57.93;;;24.20;;
19043;SDS011;9654;52.302;8.120;2023-02-11T13:54:18;49.67;;;23.43;;
19043;SDS011;9654;52.302;8.120;2023-02-11T13:59:48;48.73;;;23.70;;
19043;SDS011;9654;52.302;8.120;2023-02-11T14:02:21;53.03;;;23.30;;
19043;SDS011;9654;52.302;8.120;2023-02-11T14:05:24;67.43;;;24.47;;
19043;SDS011;9654;52.302;8.120;2023-02-11T14:08:22;52.73;;;24.03;;
19043;SDS011;9654;52.302;8.120;2023-02-11T14:11:09;53.83;;;23.90;;
19043;SDS011;9654;52.302;8.120;2023-02-11T14:14:00;48.47;;;24.43;;
19043;SDS011;9654;52.302;8.120;2023-02-11T14:16:47;48.30;;;24.23;;
19043;SDS011;9654;52.302;8.120;2023-02-11T14:19:44;51.03;;;25.00;;
19043;SDS011;9654;52.302;8.120;2023-02-11T14:22:12;53.10;;;23.53;;
19043;SDS011;9654;52.302;8.120;2023-02-11T14:24:45;50.67;;;22.90;;
19043;SDS011;9654;52.302;8.120;2023-02-11T14:27:17;53.03;;;24.97;;
19043;SDS011;9654;52.302;8.120;2023-02-11T14:29:52;53.27;;;22.67;;
19043;SDS011;9654;52.302;8.120;2023-02-11T14:32:51;49.80;;;24.37;;
19043;SDS011;9654;52.302;8.120;2023-02-11T14:35:33;56.47;;;23.77;;
19043;SDS011;9654;52.302;8.120;2023-02-11T14:38:09;52.37;;;24.30;;
19043;SDS011;9654;52.302;8.120;2023-02-11T14:40:44;53.03;;;25.40;;
19043;SDS011;9654;52.302;8.120;2023-02-11T14:43:19;52.03;;;23.97;;
19043;SDS011;9654;52.302;8.120;2023-02-11T14:45:50;51.30;;;23.90;;
19043;SDS011;9654;52.302;8.120;2023-02-11T14:48:21;55.30;;;25.43;;
19043;SDS011;9654;52.302;8.120;2023-02-11T14:50:56;53.07;;;24.20;;
19043;SDS011;9654;52.302;8.120;2023-02-11T14:53:26;55.83;;;25.33;;
19043;SDS011;9654;52.302;8.120;2023-02-11T14:55:56;54.73;;;25.43;;
19043;SDS011;9654;52.302;8.120;2023-02-11T14:58:24;51.87;;;24.23;;
19043;SDS011;9654;52.302;8.120;2023-02-11T15:00:53;51.73;;;23.67;;
19043;SDS011;9654;52.302;8.120;2023-02-11T15:03:24;51.30;;;22.83;;
19043;SDS011;9654;52.302;8.120;2023-02-11T15:05:57;49.23;;;22.47;;
19043;SDS011;9654;52.302;8.120;2023-02-11T15:08:25;49.90;;;24.00;;
19043;SDS011;9654;52.302;8.120;2023-02-11T15:10:54;50.47;;;25.07;;
19043;SDS011;9654;52.302;8.120;2023-02-11T15:13:22;54.03;;;25.33;;
19043;SDS011;9654;52.302;8.120;2023-02-11T15:15:56;50.60;;;24.67;;
19043;SDS011;9654;52.302;8.120;2023-02-11T15:18:28;49.87;;;25.03;;
19043;SDS011;9654;52.302;8.120;2023-02-11T15:20:58;50.20;;;22.63;;
19043;SDS011;9654;52.302;8.120;2023-02-11T15:23:26;47.30;;;22.77;;
19043;SDS011;9654;52.302;8.120;2023-02-11T15:25:54;48.90;;;23.40;;
19043;SDS011;9654;52.302;8.120;2023-02-11T15:28:21;49.53;;;22.57;;
19043;SDS011;9654;52.302;8.120;2023-02-11T15:30:56;46.77;;;21.97;;
19043;SDS011;9654;52.302;8.120;2023-02-11T15:33:24;49.47;;;25.13;;
19043;SDS011;9654;52.302;8.120;2023-02-11T15:35:55;46.60;;;24.27;;
19043;SDS011;9654;52.302;8.120;2023-02-11T15:38:22;48.30;;;24.97;;
19043;SDS011;9654;52.302;8.120;2023-02-11T15:40:50;48.27;;;25.07;;
19043;SDS011;9654;52.302;8.120;2023-02-11T15:43:19;50.03;;;24.87;;
19043;SDS011;9654;52.302;8.120;2023-02-11T15:45:52;49.07;;;22.97;;
19043;SDS011;9654;52.302;8.120;2023-02-11T15:48:24;48.07;;;23.17;;
19043;SDS011;9654;52.302;8.120;2023-02-11T15:51:00;50.27;;;24.03;;
19043;SDS011;9654;52.302;8.120;2023-02-11T15:53:31;44.07;;;22.87;;
19043;SDS011;9654;52.302;8.120;2023-02-11T15:56:02;42.33;;;22.43;;
19043;SDS011;9654;52.302;8.120;2023-02-11T15:58:35;47.37;;;22.60;;
19043;SDS011;9654;52.302;8.120;2023-02-11T16:01:02;47.57;;;23.57;;
19043;SDS011;9654;52.302;8.120;2023-02-11T16:03:30;51.77;;;23.43;;
19043;SDS011;9654;52.302;8.120;2023-02-11T16:08:44;52.10;;;23.80;;
19043;SDS011;9654;52.302;8.120;2023-02-11T16:11:23;51.80;;;24.37;;
19043;SDS011;9654;52.302;8.120;2023-02-11T16:13:53;50.70;;;23.23;;
19043;SDS011;9654;52.302;8.120;2023-02-11T16:16:21;48.77;;;25.33;;
19043;SDS011;9654;52.302;8.120;2023-02-11T16:18:50;47.33;;;24.03;;
19043;SDS011;9654;52.302;8.120;2023-02-11T16:21:23;49.63;;;23.50;;
19043;SDS011;9654;52.302;8.120;2023-02-11T16:23:55;48.87;;;23.43;;
19043;SDS011;9654;52.302;8.120;2023-02-11T16:26:24;42.60;;;23.60;;
19043;SDS011;9654;52.302;8.120;2023-02-11T16:29:01;53.30;;;25.73;;
19043;SDS011;9654;52.302;8.120;2023-02-11T16:31:33;57.93;;;27.27;;
19043;SDS011;9654;52.302;8.120;2023-02-11T16:34:01;54.37;;;28.27;;
19043;SDS011;9654;52.302;8.120;2023-02-11T16:36:32;52.27;;;26.60;;
19043;SDS011;9654;52.302;8.120;2023-02-11T16:38:59;47.17;;;27.30;;
19043;SDS011;9654;52.302;8.120;2023-02-11T16:41:26;49.60;;;26.33;;
19043;SDS011;9654;52.302;8.120;2023-02-11T16:43:53;50.23;;;25.57;;
19043;SDS011;9654;52.302;8.120;2023-02-11T16:46:22;48.53;;;24.03;;
19043;SDS011;9654;52.302;8.120;2023-02-11T16:48:51;48.53;;;24.07;;
19043;SDS011;9654;52.302;8.120;2023-02-11T16:51:18;44.17;;;22.47;;
19043;SDS011;9654;52.302;8.120;2023-02-11T16:53:46;47.13;;;23.13;;
19043;SDS011;9654;52.302;8.120;2023-02-11T16:56:14;53.63;;;24.63;;
19043;SDS011;9654;52.302;8.120;2023-02-11T16:58:42;45.30;;;22.83;;
19043;SDS011;9654;52.302;8.120;2023-02-11T17:01:09;50.10;;;25.27;;
19043;SDS011;9654;52.302;8.120;2023-02-11T17:03:36;52.97;;;25.47;;
19043;SDS011;9654;52.302;8.120;2023-02-11T17:06:05;49.43;;;25.07;;
19043;SDS011;9654;52.302;8.120;2023-02-11T17:08:33;47.93;;;25.67;;
19043;SDS011;9654;52.302;8.120;2023-02-11T17:11:02;43.93;;;22.37;;
19043;SDS011;9654;52.302;8.120;2023-02-11T17:13:29;47.13;;;23.53;;
19043;SDS011;9654;52.302;8.120;2023-02-11T17:15:55;42.83;;;22.67;;
19043;SDS011;9654;52.302;8.120;2023-02-11T17:18:22;51.57;;;23.13;;
19043;SDS011;9654;52.302;8.120;2023-02-11T17:20:49;44.80;;;22.17;;
19043;SDS011;9654;52.302;8.120;2023-02-11T17:23:16;46.03;;;22.60;;
19043;SDS011;9654;52.302;8.120;2023-02-11T17:25:43;43.40;;;21.93;;
19043;SDS011;9654;52.302;8.120;2023-02-11T17:28:11;40.70;;;21.23;;
19043;SDS011;9654;52.302;8.120;2023-02-11T17:30:38;46.57;;;22.23;;
19043;SDS011;9654;52.302;8.120;2023-02-11T17:33:07;44.43;;;21.43;;
19043;SDS011;9654;52.302;8.120;2023-02-11T17:35:37;38.80;;;21.73;;
19043;SDS011;9654;52.302;8.120;2023-02-11T17:38:04;50.90;;;22.47;;
19043;SDS011;9654;52.302;8.120;2023-02-11T17:40:31;41.90;;;21.27;;
19043;SDS011;9654;52.302;8.120;2023-02-11T17:42:58;42.80;;;21.80;;
19043;SDS011;9654;52.302;8.120;2023-02-11T17:45:26;41.50;;;21.10;;
19043;SDS011;9654;52.302;8.120;2023-02-11T17:47:52;45.70;;;21.90;;
19043;SDS011;9654;52.302;8.120;2023-02-11T17:50:19;42.97;;;20.60;;
19043;SDS011;9654;52.302;8.120;2023-02-11T17:52:46;41.67;;;20.67;;
19043;SDS011;9654;52.302;8.120;2023-02-11T17:55:13;40.90;;;21.27;;
19043;SDS011;9654;52.302;8.120;2023-02-11T17:57:39;43.97;;;21.60;;
19043;SDS011;9654;52.302;8.120;2023-02-11T18:00:07;35.10;;;19.30;;
19043;SDS011;9654;52.302;8.120;2023-02-11T18:02:35;44.77;;;20.97;;
19043;SDS011;9654;52.302;8.120;2023-02-11T18:05:02;35.83;;;19.20;;
19043;SDS011;9654;52.302;8.120;2023-02-11T18:07:29;38.40;;;19.63;;
19043;SDS011;9654;52.302;8.120;2023-02-11T18:09:56;37.40;;;20.03;;
19043;SDS011;9654;52.302;8.120;2023-02-11T18:12:23;39.63;;;18.73;;
19043;SDS011;9654;52.302;8.120;2023-02-11T18:14:50;37.57;;;19.63;;
19043;SDS011;9654;52.302;8.120;2023-02-11T18:17:17;41.37;;;21.40;;
19043;SDS011;9654;52.302;8.120;2023-02-11T18:19:46;43.10;;;22.87;;
19043;SDS011;9654;52.302;8.120;2023-02-11T18:22:13;37.90;;;19.73;;
19043;SDS011;9654;52.302;8.120;2023-02-11T18:24:40;80.40;;;34.13;;
19043;SDS011;9654;52.302;8.120;2023-02-11T18:27:07;44.13;;;20.80;;
19043;SDS011;9654;52.302;8.120;2023-02-11T18:29:34;70.03;;;32.93;;
19043;SDS011;9654;52.302;8.120;2023-02-11T18:32:01;46.03;;;22.00;;
19043;SDS011;9654;52.302;8.120;2023-02-11T18:34:28;43.87;;;20.67;;
19043;SDS011;9654;52.302;8.120;2023-02-11T18:36:57;32.63;;;16.53;;
19043;SDS011;9654;52.302;8.120;2023-02-11T18:39:23;34.40;;;16.63;;
19043;SDS011;9654;52.302;8.120;2023-02-11T18:41:50;38.77;;;18.23;;
19043;SDS011;9654;52.302;8.120;2023-02-11T18:44:20;35.33;;;16.83;;
19043;SDS011;9654;52.302;8.120;2023-02-11T18:46:48;40.40;;;18.63;;
19043;SDS011;9654;52.302;8.120;2023-02-11T18:49:15;34.60;;;16.57;;
19043;SDS011;9654;52.302;8.120;2023-02-11T18:51:42;41.17;;;19.67;;
19043;SDS011;9654;52.302;8.120;2023-02-11T18:54:10;42.20;;;23.97;;
19043;SDS011;9654;52.302;8.120;2023-02-11T18:56:37;46.00;;;23.17;;
19043;SDS011;9654;52.302;8.120;2023-02-11T18:59:04;38.87;;;19.30;;
19043;SDS011;9654;52.302;8.120;2023-02-11T19:01:31;33.30;;;16.60;;
19043;SDS011;9654;52.302;8.120;2023-02-11T19:03:59;37.90;;;17.33;;
19043;SDS011;9654;52.302;8.120;2023-02-11T19:06:28;32.47;;;15.80;;